createdAt,value
2018-04-29T00:00:13.646Z,90.83
2018-04-29T00:01:13.732Z,90.06
2018-04-29T00:02:13.531Z,90.25
2018-04-29T00:03:13.403Z,90.25
2018-04-29T00:04:13.394Z,89.97
2018-04-29T00:05:13.374Z,89.97
2018-04-29T00:06:13.367Z,89.30
2018-04-29T00:07:13.644Z,89.97
2018-04-29T00:08:13.331Z,89.68
2018-04-29T00:09:13.440Z,90.35
2018-04-29T00:10:13.422Z,90.45
2018-04-29T00:11:13.409Z,90.54
2018-04-29T00:12:13.581Z,89.68
2018-04-29T00:13:13.259Z,90.40
2018-04-29T00:14:13.542Z,90.59
2018-04-29T00:15:13.332Z,90.40
2018-04-29T00:16:13.290Z,90.69
2018-04-29T00:17:13.301Z,90.40
2018-04-29T00:18:13.431Z,90.31
2018-04-29T00:19:13.254Z,90.50
2018-04-29T00:20:13.149Z,90.21
2018-04-29T00:21:13.437Z,89.45
2018-04-29T00:22:13.126Z,90.02
2018-04-29T00:23:13.561Z,89.92
2018-04-29T00:24:13.142Z,89.73
2018-04-29T00:25:13.074Z,89.64
2018-04-29T00:26:13.062Z,89.78
2018-04-29T00:27:13.048Z,89.35
2018-04-29T00:28:13.332Z,89.73
2018-04-29T00:29:14.245Z,89.06
2018-04-29T00:30:13.189Z,88.78
2018-04-29T00:31:13.074Z,89.16
2018-04-29T00:32:12.976Z,89.73
2018-04-29T00:33:12.971Z,89.83
2018-04-29T00:34:13.062Z,88.68
2018-04-29T00:35:13.246Z,88.87
2018-04-29T00:36:12.981Z,89.45
2018-04-29T00:37:12.988Z,89.54
2018-04-29T00:38:12.999Z,88.87
2018-04-29T00:39:12.961Z,88.49
2018-04-29T00:40:12.970Z,89.16
2018-04-29T00:41:12.935Z,88.87
2018-04-29T00:42:13.220Z,88.87
2018-04-29T00:43:12.814Z,88.97
2018-04-29T00:44:12.807Z,88.78
2018-04-29T00:45:12.790Z,88.20
2018-04-29T00:46:12.870Z,88.30
2018-04-29T00:47:12.759Z,88.49
2018-04-29T00:48:14.183Z,88.59
2018-04-29T00:49:13.030Z,88.49
2018-04-29T00:50:12.711Z,88.49
2018-04-29T00:51:12.705Z,88.59
2018-04-29T00:52:12.769Z,88.20
2018-04-29T00:53:12.670Z,88.49
2018-04-29T00:54:12.710Z,88.30
2018-04-29T00:56:12.934Z,88.40
2018-04-29T00:57:12.700Z,88.07
2018-04-29T00:58:12.600Z,88.30
2018-04-29T00:59:12.673Z,88.07
2018-04-29T01:00:12.709Z,87.11
2018-04-29T01:01:12.649Z,87.68
2018-04-29T01:02:12.840Z,86.73
2018-04-29T01:03:12.524Z,87.11
2018-04-29T01:04:12.512Z,86.73
2018-04-29T01:05:12.499Z,86.92
2018-04-29T01:06:12.579Z,87.02
2018-04-29T01:07:12.547Z,87.78
2018-04-29T01:08:12.789Z,87.11
2018-04-29T01:09:12.441Z,87.68
2018-04-29T01:10:12.502Z,86.92
2018-04-29T01:11:12.699Z,86.82
2018-04-29T01:12:12.520Z,87.30
2018-04-29T01:13:12.379Z,86.82
2018-04-29T01:14:12.659Z,86.35
2018-04-29T01:15:12.343Z,86.35
2018-04-29T01:16:12.328Z,86.73
2018-04-29T01:17:12.354Z,87.40
2018-04-29T01:18:12.305Z,86.92
2018-04-29T01:19:12.290Z,87.21
2018-04-29T01:20:12.569Z,86.73
2018-04-29T01:21:12.395Z,86.16
2018-04-29T01:22:12.258Z,86.73
2018-04-29T01:23:12.357Z,87.11
2018-04-29T01:24:12.377Z,87.30
2018-04-29T01:25:12.205Z,87.30
2018-04-29T01:26:12.519Z,87.02
2018-04-29T01:27:12.247Z,87.21
2018-04-29T01:28:12.233Z,87.21
2018-04-29T01:29:12.220Z,86.82
2018-04-29T01:30:12.203Z,87.11
2018-04-29T01:31:12.229Z,87.02
2018-04-29T01:33:12.180Z,85.58
2018-04-29T01:34:12.210Z,85.87
2018-04-29T01:35:12.056Z,86.06
2018-04-29T01:36:12.129Z,85.77
2018-04-29T01:37:12.024Z,85.87
2018-04-29T01:38:12.303Z,86.25
2018-04-29T01:39:11.989Z,85.68
2018-04-29T01:40:12.222Z,85.68
2018-04-29T01:41:11.951Z,85.97
2018-04-29T01:42:11.943Z,86.25
2018-04-29T01:43:11.927Z,85.97
2018-04-29T01:44:11.904Z,85.97
2018-04-29T01:45:12.190Z,85.97
2018-04-29T01:46:11.994Z,85.68
2018-04-29T01:47:11.860Z,85.58
2018-04-29T01:48:11.946Z,85.68
2018-04-29T01:49:11.920Z,86.06
2018-04-29T01:50:11.822Z,85.77
2018-04-29T01:51:11.910Z,86.16
2018-04-29T01:52:12.141Z,86.16
2018-04-29T01:53:11.886Z,86.16
2018-04-29T01:54:11.869Z,85.77
2018-04-29T01:55:11.833Z,85.49
2018-04-29T01:56:11.918Z,85.77
2018-04-29T01:57:11.820Z,85.58
2018-04-29T01:58:11.695Z,86.06
2018-04-29T01:59:12.071Z,85.97
2018-04-29T02:00:11.750Z,85.97
2018-04-29T02:01:11.652Z,86.06
2018-04-29T02:02:11.739Z,86.35
2018-04-29T02:03:11.626Z,85.97
2018-04-29T02:04:11.692Z,86.35
2018-04-29T02:05:11.678Z,85.87
2018-04-29T02:06:11.889Z,86.44
2018-04-29T02:07:11.574Z,86.35
2018-04-29T02:08:11.543Z,85.68
2018-04-29T02:09:11.615Z,85.77
2018-04-29T02:10:11.602Z,85.68
2018-04-29T02:11:11.505Z,85.68
2018-04-29T02:12:11.495Z,85.68
2018-04-29T02:13:11.858Z,85.21
2018-04-29T02:14:11.539Z,84.16
2018-04-29T02:15:11.528Z,84.82
2018-04-29T02:16:11.513Z,84.16
2018-04-29T02:17:11.414Z,84.72
2018-04-29T02:18:11.400Z,84.25
2018-04-29T02:19:11.388Z,84.25
2018-04-29T02:20:11.676Z,84.44
2018-04-29T02:21:11.432Z,84.25
2018-04-29T02:22:11.337Z,84.20
2018-04-29T02:23:11.316Z,84.25
2018-04-29T02:24:11.304Z,84.44
2018-04-29T02:25:11.287Z,84.25
2018-04-29T02:26:11.420Z,84.25
2018-04-29T02:27:11.571Z,84.16
2018-04-29T02:28:11.247Z,84.53
2018-04-29T02:29:11.233Z,84.34
2018-04-29T02:30:11.213Z,84.40
2018-04-29T02:31:11.200Z,83.96
2018-04-29T02:32:11.435Z,84.69
2018-04-29T02:33:11.466Z,85.16
2018-04-29T02:34:11.235Z,85.16
2018-04-29T02:35:11.137Z,84.69
2018-04-29T02:36:11.229Z,84.69
2018-04-29T02:37:11.106Z,84.49
2018-04-29T02:38:11.252Z,84.40
2018-04-29T02:39:11.489Z,84.20
2018-04-29T02:40:11.060Z,84.69
2018-04-29T02:41:11.300Z,84.30
2018-04-29T02:42:11.031Z,83.25
2018-04-29T02:43:11.158Z,84.01
2018-04-29T02:44:11.154Z,83.64
2018-04-29T02:45:11.295Z,83.44
2018-04-29T02:46:11.054Z,82.68
2018-04-29T02:47:11.037Z,82.78
2018-04-29T02:48:11.028Z,83.06
2018-04-29T02:49:11.011Z,82.68
2018-04-29T02:50:11.062Z,82.11
2018-04-29T02:51:11.201Z,82.40
2018-04-29T02:52:10.876Z,82.78
2018-04-29T02:53:10.963Z,82.97
2018-04-29T02:54:10.846Z,82.78
2018-04-29T02:55:10.917Z,82.30
2018-04-29T02:56:10.903Z,83.16
2018-04-29T02:57:11.104Z,83.06
2018-04-29T02:58:10.792Z,81.73
2018-04-29T02:59:10.789Z,80.39
2018-04-29T03:00:10.767Z,81.25
2018-04-29T03:01:10.749Z,80.20
2018-04-29T03:02:10.886Z,80.20
2018-04-29T03:03:11.118Z,80.30
2018-04-29T03:04:10.778Z,80.20
2018-04-29T03:05:10.675Z,80.30
2018-04-29T03:06:10.665Z,79.72
2018-04-29T03:07:10.649Z,79.44
2018-04-29T03:08:10.630Z,79.40
2018-04-29T03:09:10.622Z,79.02
2018-04-29T03:10:10.898Z,78.44
2018-04-29T03:11:10.676Z,78.64
2018-04-29T03:12:10.655Z,77.78
2018-04-29T03:13:10.644Z,77.30
2018-04-29T03:14:10.775Z,76.82
2018-04-29T03:15:10.531Z,75.78
2018-04-29T03:16:10.592Z,75.78
2018-04-29T03:17:10.795Z,75.30
2018-04-29T03:18:10.565Z,74.73
2018-04-29T03:19:10.456Z,75.01
2018-04-29T03:20:10.449Z,74.82
2018-04-29T03:21:10.431Z,74.92
2018-04-29T03:22:10.494Z,74.44
2018-04-29T03:23:10.479Z,74.63
2018-04-29T03:24:10.678Z,75.01
2018-04-29T03:25:10.364Z,75.11
2018-04-29T03:26:10.443Z,74.44
2018-04-29T03:27:10.336Z,73.96
2018-04-29T03:28:10.312Z,74.35
2018-04-29T03:29:10.300Z,73.77
2018-04-29T03:30:10.290Z,73.26
2018-04-29T03:31:10.573Z,73.11
2018-04-29T03:32:10.305Z,73.58
2018-04-29T03:33:10.240Z,73.01
2018-04-29T03:34:10.257Z,74.25
2018-04-29T03:35:10.215Z,73.39
2018-04-29T03:36:10.185Z,73.30
2018-04-29T03:37:10.255Z,73.77
2018-04-29T03:38:10.503Z,73.39
2018-04-29T03:39:10.305Z,73.01
2018-04-29T03:40:10.207Z,73.30
2018-04-29T03:41:10.192Z,73.77
2018-04-29T03:42:10.090Z,73.39
2018-04-29T03:43:10.158Z,74.06
2018-04-29T03:44:10.107Z,73.49
2018-04-29T03:45:10.425Z,73.58
2018-04-29T03:46:10.115Z,73.58
2018-04-29T03:47:10.096Z,73.30
2018-04-29T03:48:09.991Z,73.30
2018-04-29T03:49:10.065Z,73.11
2018-04-29T03:50:10.022Z,73.01
2018-04-29T03:51:09.949Z,72.53
2018-04-29T03:52:10.240Z,72.25
2018-04-29T03:53:09.912Z,72.02
2018-04-29T03:54:09.979Z,71.64
2018-04-29T03:55:09.887Z,71.55
2018-04-29T03:56:11.180Z,71.64
2018-04-29T03:57:09.859Z,70.59
2018-04-29T03:58:10.239Z,70.50
2018-04-29T03:59:09.822Z,70.12
2018-04-29T04:00:10.069Z,70.31
2018-04-29T04:01:09.917Z,69.93
2018-04-29T04:02:09.764Z,70.59
2018-04-29T04:03:09.747Z,70.31
2018-04-29T04:04:09.745Z,69.74
2018-04-29T04:05:09.747Z,69.17
2018-04-29T04:06:09.701Z,68.78
2018-04-29T04:08:09.673Z,67.16
2018-04-29T04:09:09.665Z,66.88
2018-04-29T04:10:10.032Z,66.59
2018-04-29T04:11:09.702Z,67.26
2018-04-29T04:12:09.702Z,67.03
2018-04-29T04:13:09.715Z,66.94
2018-04-29T04:14:09.627Z,66.11
2018-04-29T04:15:09.692Z,65.26
2018-04-29T04:16:09.877Z,64.84
2018-04-29T04:17:09.519Z,64.40
2018-04-29T04:18:09.674Z,64.47
2018-04-29T04:19:09.491Z,63.32
2018-04-29T04:20:09.625Z,62.94
2018-04-29T04:21:09.458Z,63.04
2018-04-29T04:22:09.839Z,63.26
2018-04-29T04:23:09.429Z,63.70
2018-04-29T04:24:09.413Z,63.17
2018-04-29T04:25:09.495Z,63.45
2018-04-29T04:26:09.484Z,63.54
2018-04-29T04:27:09.452Z,63.64
2018-04-29T04:28:09.729Z,63.83
2018-04-29T04:29:09.410Z,64.12
2018-04-29T04:30:09.400Z,64.31
2018-04-29T04:31:09.377Z,64.21
2018-04-29T04:32:09.360Z,64.31
2018-04-29T04:33:09.348Z,64.59
2018-04-29T04:34:09.701Z,64.02
2018-04-29T04:35:09.231Z,63.17
2018-04-29T04:36:09.209Z,63.04
2018-04-29T04:37:09.278Z,62.65
2018-04-29T04:38:09.364Z,62.78
2018-04-29T04:39:09.245Z,61.93
2018-04-29T04:40:09.173Z,62.40
2018-04-29T04:41:09.428Z,62.78
2018-04-29T04:42:09.194Z,63.17
2018-04-29T04:43:09.144Z,63.35
2018-04-29T04:44:09.125Z,62.94
2018-04-29T04:45:09.059Z,63.42
2018-04-29T04:46:09.137Z,63.54
2018-04-29T04:47:09.115Z,63.70
2018-04-29T04:48:09.310Z,63.70
2018-04-29T04:49:09.077Z,63.35
2018-04-29T04:50:09.033Z,63.32
2018-04-29T04:51:08.961Z,63.83
2018-04-29T04:52:08.955Z,64.59
2018-04-29T04:53:08.927Z,63.26
2018-04-29T04:54:08.919Z,63.35
2018-04-29T04:55:09.194Z,62.68
2018-04-29T04:56:08.967Z,62.59
2018-04-29T04:57:08.869Z,62.02
2018-04-29T04:58:09.014Z,61.93
2018-04-29T04:59:08.836Z,62.59
2018-04-29T05:00:08.821Z,62.97
2018-04-29T05:01:08.803Z,63.54
2018-04-29T05:02:09.093Z,63.73
2018-04-29T05:03:08.772Z,63.73
2018-04-29T05:04:08.838Z,63.73
2018-04-29T05:05:08.816Z,65.45
2018-04-29T05:06:08.733Z,64.40
2018-04-29T05:07:08.698Z,64.31
2018-04-29T05:08:08.741Z,64.81
2018-04-29T05:09:08.971Z,66.50
2018-04-29T05:10:08.655Z,67.16
2018-04-29T05:11:08.634Z,67.45
2018-04-29T05:12:08.621Z,67.96
2018-04-29T05:13:08.802Z,68.72
2018-04-29T05:14:08.584Z,69.48
2018-04-29T05:15:08.665Z,68.91
2018-04-29T05:16:08.939Z,69.20
2018-04-29T05:17:08.621Z,69.87
2018-04-29T05:18:08.520Z,69.68
2018-04-29T05:19:08.585Z,70.06
2018-04-29T05:20:08.729Z,69.87
2018-04-29T05:21:08.812Z,70.06
2018-04-29T05:22:08.505Z,69.39
2018-04-29T05:23:08.831Z,69.29
2018-04-29T05:24:08.421Z,69.39
2018-04-29T05:25:08.414Z,69.29
2018-04-29T05:26:08.444Z,68.15
2018-04-29T05:27:08.398Z,68.24
2018-04-29T05:28:08.378Z,68.05
2018-04-29T05:29:08.647Z,68.38
2018-04-29T05:30:08.424Z,68.72
2018-04-29T05:31:08.384Z,69.23
2018-04-29T05:32:08.367Z,69.71
2018-04-29T05:33:08.370Z,69.71
2018-04-29T05:34:08.351Z,69.90
2018-04-29T05:35:08.624Z,70.09
2018-04-29T05:36:08.320Z,70.67
2018-04-29T05:37:08.231Z,70.19
2018-04-29T05:38:08.414Z,70.38
2018-04-29T05:39:08.195Z,70.57
2018-04-29T05:40:08.160Z,71.04
2018-04-29T05:41:08.443Z,71.04
2018-04-29T05:42:08.125Z,70.57
2018-04-29T05:43:08.194Z,71.14
2018-04-29T05:44:08.092Z,71.75
2018-04-29T05:45:08.084Z,72.61
2018-04-29T05:46:08.088Z,72.80
2018-04-29T05:47:08.396Z,72.99
2018-04-29T05:48:08.040Z,73.37
2018-04-29T05:49:08.017Z,73.37
2018-04-29T05:50:08.150Z,74.13
2018-04-29T05:51:07.982Z,74.55
2018-04-29T05:52:08.053Z,75.60
2018-04-29T05:53:08.361Z,75.22
2018-04-29T05:54:08.111Z,74.84
2018-04-29T05:55:07.926Z,75.22
2018-04-29T05:56:08.061Z,76.46
2018-04-29T05:57:07.888Z,77.42
2018-04-29T05:58:07.879Z,79.36
2018-04-29T05:59:09.514Z,79.36
2018-04-29T06:00:07.845Z,80.13
2018-04-29T06:01:07.834Z,81.56
2018-04-29T06:02:07.812Z,80.80
2018-04-29T06:03:07.796Z,81.79
2018-04-29T06:04:07.785Z,82.90
2018-04-29T06:05:08.066Z,83.51
2018-04-29T06:06:07.757Z,83.90
2018-04-29T06:07:07.742Z,83.99
2018-04-29T06:08:07.740Z,85.24
2018-04-29T06:09:07.708Z,85.14
2018-04-29T06:10:07.704Z,85.47
2018-04-29T06:11:07.679Z,85.66
2018-04-29T06:12:07.970Z,88.53
2018-04-29T06:13:07.649Z,87.19
2018-04-29T06:14:07.794Z,87.38
2018-04-29T06:15:07.622Z,86.71
2018-04-29T06:16:07.612Z,85.47
2018-04-29T06:17:07.608Z,88.15
2018-04-29T06:18:07.579Z,87.95
2018-04-29T06:20:07.938Z,88.62
2018-04-29T06:21:07.542Z,87.48
2018-04-29T06:22:07.583Z,88.34
2018-04-29T06:24:07.711Z,88.24
2018-04-29T06:25:07.483Z,89.01
2018-04-29T06:26:07.830Z,88.53
2018-04-29T06:27:07.856Z,88.81
2018-04-29T06:28:07.449Z,88.34
2018-04-29T06:29:07.434Z,88.34
2018-04-29T06:30:07.485Z,88.81
2018-04-29T06:31:07.401Z,89.01
2018-04-29T06:32:07.606Z,88.57
2018-04-29T06:33:07.382Z,88.67
2018-04-29T06:34:07.673Z,88.38
2018-04-29T06:35:07.564Z,89.43
2018-04-29T06:36:07.420Z,90.10
2018-04-29T06:37:07.410Z,89.05
2018-04-29T06:38:07.420Z,90.39
2018-04-29T06:39:07.302Z,90.48
2018-04-29T06:40:07.290Z,89.34
2018-04-29T06:41:07.574Z,90.48
2018-04-29T06:42:07.262Z,89.95
2018-04-29T06:43:07.249Z,90.44
2018-04-29T06:44:07.281Z,90.44
2018-04-29T06:45:07.386Z,90.34
2018-04-29T06:46:07.248Z,90.15
2018-04-29T06:47:07.194Z,92.16
2018-04-29T06:48:07.171Z,92.06
2018-04-29T06:49:07.180Z,92.73
2018-04-29T06:50:07.142Z,92.78
2018-04-29T06:51:07.216Z,91.82
2018-04-29T06:52:07.193Z,91.72
2018-04-29T06:53:07.102Z,93.26
2018-04-29T06:55:07.702Z,92.21
2018-04-29T06:56:07.075Z,93.16
2018-04-29T06:57:07.460Z,92.78
2018-04-29T06:58:07.048Z,92.97
2018-04-29T06:59:07.025Z,92.11
2018-04-29T07:00:07.090Z,93.02
2018-04-29T07:01:07.376Z,93.02
2018-04-29T07:02:07.083Z,93.78
2018-04-29T07:03:07.220Z,94.17
2018-04-29T07:04:07.088Z,94.74
2018-04-29T07:05:07.031Z,93.40
2018-04-29T07:06:07.022Z,93.30
2018-04-29T07:07:07.225Z,93.98
2018-04-29T07:08:07.011Z,94.07
2018-04-29T07:09:06.990Z,93.78
2018-04-29T07:10:06.882Z,94.07
2018-04-29T07:11:06.977Z,94.69
2018-04-29T07:12:06.857Z,95.07
2018-04-29T07:13:07.137Z,94.79
2018-04-29T07:14:06.914Z,94.12
2018-04-29T07:15:07.529Z,95.07
2018-04-29T07:16:06.899Z,94.02
2018-04-29T07:17:06.900Z,94.89
2018-04-29T07:18:06.887Z,94.50
2018-04-29T07:19:07.220Z,94.45
2018-04-29T07:20:06.842Z,94.64
2018-04-29T07:21:06.975Z,95.12
2018-04-29T07:22:06.950Z,95.12
2018-04-29T07:23:09.235Z,94.74
2018-04-29T07:24:06.842Z,95.79
2018-04-29T07:25:06.998Z,95.55
2018-04-29T07:26:07.489Z,95.70
2018-04-29T07:27:06.728Z,96.51
2018-04-29T07:28:06.667Z,94.35
2018-04-29T07:29:06.644Z,94.25
2018-04-29T07:30:06.629Z,92.61
2018-04-29T07:32:06.756Z,84.99
2018-04-29T07:33:06.600Z,80.27
2018-04-29T07:34:06.753Z,81.91
2018-04-29T07:35:06.598Z,82.78
2018-04-29T07:36:06.560Z,80.89
2018-04-29T07:37:06.853Z,75.82
2018-04-29T07:38:06.588Z,72.00
2018-04-29T07:39:06.529Z,69.58
2018-04-29T07:40:06.674Z,69.20
2018-04-29T07:41:06.514Z,68.49
2018-04-29T07:42:06.619Z,68.62
2018-04-29T07:43:06.490Z,67.78
2018-04-29T07:44:06.779Z,63.82
2018-04-29T07:45:06.462Z,63.05
2018-04-29T07:46:06.479Z,62.86
2018-04-29T07:47:06.454Z,61.63
2018-04-29T07:48:06.521Z,62.28
2018-04-29T07:49:06.512Z,61.99
2018-04-29T07:50:06.509Z,62.34
2018-04-29T07:51:06.841Z,62.82
2018-04-29T07:52:06.429Z,59.96
2018-04-29T07:53:06.479Z,59.09
2018-04-29T07:54:06.466Z,59.38
2018-04-29T07:55:06.460Z,58.12
2018-04-29T07:56:06.429Z,56.71
2018-04-29T07:57:06.361Z,56.73
2018-04-29T07:58:06.648Z,56.73
2018-04-29T07:59:06.445Z,56.90
2018-04-29T08:00:06.410Z,58.51
2018-04-29T08:01:06.613Z,58.83
2018-04-29T08:02:06.448Z,59.09
2018-04-29T08:03:06.302Z,59.38
2018-04-29T08:04:06.302Z,59.12
2018-04-29T08:05:06.981Z,57.89
2018-04-29T08:06:06.400Z,57.12
2018-04-29T08:07:06.343Z,57.79
2018-04-29T08:08:06.291Z,57.29
2018-04-29T08:09:06.274Z,56.57
2018-04-29T08:10:06.256Z,55.31
2018-04-29T08:11:06.374Z,56.73
2018-04-29T08:12:06.546Z,56.37
2018-04-29T08:13:06.536Z,57.34
2018-04-29T08:14:06.239Z,56.57
2018-04-29T08:15:06.522Z,55.47
2018-04-29T08:16:06.215Z,57.48
2018-04-29T08:17:06.199Z,59.70
2018-04-29T08:18:06.191Z,58.31
2018-04-29T08:19:06.487Z,56.95
2018-04-29T08:20:06.179Z,56.37
2018-04-29T08:21:06.180Z,55.11
2018-04-29T08:22:06.168Z,56.13
2018-04-29T08:23:06.166Z,56.76
2018-04-29T08:24:06.263Z,56.11
2018-04-29T08:25:06.156Z,55.15
2018-04-29T08:26:06.454Z,55.43
2018-04-29T08:27:06.145Z,55.36
2018-04-29T08:28:06.129Z,53.63
2018-04-29T08:29:06.170Z,53.65
2018-04-29T08:30:06.187Z,52.00
2018-04-29T08:31:06.111Z,52.61
2018-04-29T08:32:06.402Z,53.29
2018-04-29T08:33:06.101Z,53.33
2018-04-29T08:34:06.250Z,53.43
2018-04-29T08:35:06.090Z,53.55
2018-04-29T08:36:06.098Z,52.36
2018-04-29T08:37:06.167Z,52.05
2018-04-29T08:38:06.475Z,53.33
2018-04-29T08:39:06.201Z,50.43
2018-04-29T08:40:06.058Z,49.77
2018-04-29T08:41:06.065Z,47.36
2018-04-29T08:42:06.050Z,46.84
2018-04-29T08:43:06.040Z,46.75
2018-04-29T08:44:06.343Z,45.40
2018-04-29T08:45:06.134Z,46.66
2018-04-29T08:46:06.027Z,46.97
2018-04-29T08:47:06.022Z,46.80
2018-04-29T08:48:06.025Z,45.27
2018-04-29T08:49:06.013Z,44.03
2018-04-29T08:50:06.326Z,43.82
2018-04-29T08:51:06.249Z,45.07
2018-04-29T08:52:06.104Z,44.61
2018-04-29T08:53:06.052Z,44.10
2018-04-29T08:54:06.010Z,45.58
2018-04-29T08:55:06.696Z,44.24
2018-04-29T08:56:06.289Z,45.20
2018-04-29T08:57:06.036Z,44.61
2018-04-29T08:58:06.069Z,43.62
2018-04-29T08:59:05.975Z,41.95
2018-04-29T09:00:05.971Z,42.07
2018-04-29T09:01:06.307Z,41.49
2018-04-29T09:02:06.288Z,40.73
2018-04-29T09:03:06.105Z,39.86
2018-04-29T09:04:05.952Z,38.50
2018-04-29T09:05:06.054Z,39.86
2018-04-29T09:06:06.058Z,40.71
2018-04-29T09:07:05.950Z,41.30
2018-04-29T09:08:06.248Z,40.61
2018-04-29T09:09:06.095Z,40.83
2018-04-29T09:10:05.935Z,41.61
2018-04-29T09:11:05.945Z,42.11
2018-04-29T09:12:06.032Z,40.92
2018-04-29T09:13:05.976Z,41.24
2018-04-29T09:14:06.222Z,41.80
2018-04-29T09:15:05.977Z,40.34
2018-04-29T09:16:05.922Z,40.08
2018-04-29T09:17:06.022Z,41.05
2018-04-29T09:18:05.946Z,44.59
2018-04-29T09:19:05.979Z,43.82
2018-04-29T09:20:05.904Z,44.51
2018-04-29T09:21:06.250Z,42.99
2018-04-29T09:22:05.901Z,43.06
2018-04-29T09:23:05.895Z,41.41
2018-04-29T09:24:05.897Z,41.31
2018-04-29T09:25:05.924Z,42.24
2018-04-29T09:26:05.901Z,41.49
2018-04-29T09:27:06.151Z,39.65
2018-04-29T09:28:06.196Z,42.17
2018-04-29T09:29:06.085Z,42.46
2018-04-29T09:30:05.885Z,42.77
2018-04-29T09:31:06.936Z,42.21
2018-04-29T09:32:05.937Z,39.49
2018-04-29T09:33:05.977Z,38.71
2018-04-29T09:34:06.034Z,40.08
2018-04-29T09:35:06.174Z,41.89
2018-04-29T09:36:05.905Z,42.50
2018-04-29T09:37:06.277Z,40.36
2018-04-29T09:38:05.866Z,41.12
2018-04-29T09:39:05.864Z,42.46
2018-04-29T09:40:05.872Z,42.55
2018-04-29T09:41:06.262Z,44.03
2018-04-29T09:43:05.856Z,41.38
2018-04-29T09:44:05.864Z,39.53
2018-04-29T09:45:05.993Z,37.16
2018-04-29T09:46:05.966Z,36.48
2018-04-29T09:47:05.856Z,37.43
2018-04-29T09:48:05.856Z,38.12
2018-04-29T09:49:06.150Z,39.08
2018-04-29T09:50:05.848Z,38.23
2018-04-29T09:51:05.906Z,37.76
2018-04-29T09:52:05.865Z,37.47
2018-04-29T09:53:05.849Z,37.10
2018-04-29T09:54:05.871Z,36.15
2018-04-29T09:55:05.843Z,37.37
2018-04-29T09:56:06.151Z,38.46
2018-04-29T09:57:05.895Z,40.39
2018-04-29T09:58:05.846Z,36.69
2018-04-29T09:59:05.841Z,37.10
2018-04-29T10:00:05.871Z,36.15
2018-04-29T10:01:06.114Z,36.79
2018-04-29T10:02:05.929Z,37.98
2018-04-29T10:03:06.153Z,37.68
2018-04-29T10:04:05.944Z,37.76
2018-04-29T10:05:05.931Z,38.99
2018-04-29T10:06:05.842Z,39.69
2018-04-29T10:07:05.987Z,39.28
2018-04-29T10:08:05.935Z,39.39
2018-04-29T10:09:06.076Z,39.90
2018-04-29T10:10:06.171Z,39.03
2018-04-29T10:11:05.846Z,38.25
2018-04-29T10:12:05.838Z,38.83
2018-04-29T10:13:05.920Z,39.47
2018-04-29T10:14:05.926Z,40.44
2018-04-29T10:15:05.990Z,40.29
2018-04-29T10:16:06.143Z,40.69
2018-04-29T10:17:05.849Z,38.91
2018-04-29T10:18:05.836Z,40.56
2018-04-29T10:19:05.845Z,40.87
2018-04-29T10:20:05.835Z,38.65
2018-04-29T10:21:05.850Z,38.17
2018-04-29T10:22:08.145Z,39.53
2018-04-29T10:23:05.960Z,38.37
2018-04-29T10:24:05.837Z,39.84
2018-04-29T10:25:05.923Z,37.51
2018-04-29T10:26:05.842Z,37.41
2018-04-29T10:27:06.022Z,36.59
2018-04-29T10:28:05.968Z,36.59
2018-04-29T10:29:06.224Z,35.99
2018-04-29T10:30:05.926Z,38.42
2018-04-29T10:31:05.941Z,39.39
2018-04-29T10:32:05.850Z,38.62
2018-04-29T10:33:05.906Z,36.18
2018-04-29T10:34:05.839Z,35.70
2018-04-29T10:35:06.156Z,35.21
2018-04-29T10:36:05.844Z,35.70
2018-04-29T10:37:05.843Z,35.99
2018-04-29T10:38:05.880Z,36.34
2018-04-29T10:39:05.902Z,40.60
2018-04-29T10:40:05.851Z,38.60
2018-04-29T10:41:06.204Z,37.37
2018-04-29T10:42:05.934Z,36.49
2018-04-29T10:43:05.940Z,37.37
2018-04-29T10:44:05.858Z,36.08
2018-04-29T10:45:05.859Z,38.65
2018-04-29T10:46:05.852Z,39.84
2018-04-29T10:47:06.153Z,36.65
2018-04-29T10:48:05.856Z,36.77
2018-04-29T10:49:05.917Z,38.40
2018-04-29T10:50:05.877Z,38.29
2018-04-29T10:51:07.271Z,37.99
2018-04-29T10:52:05.946Z,37.34
2018-04-29T10:53:06.210Z,37.76
2018-04-29T10:54:05.954Z,34.56
2018-04-29T10:55:05.871Z,34.72
2018-04-29T10:56:05.950Z,37.35
2018-04-29T10:57:06.107Z,38.13
2018-04-29T10:58:05.968Z,36.98
2018-04-29T10:59:06.207Z,36.16
2018-04-29T11:00:05.959Z,38.45
2018-04-29T11:01:05.895Z,40.46
2018-04-29T11:02:05.957Z,40.52
2018-04-29T11:03:05.972Z,41.58
2018-04-29T11:04:05.883Z,41.77
2018-04-29T11:05:05.880Z,44.96
2018-04-29T11:06:06.176Z,43.40
2018-04-29T11:07:05.903Z,41.75
2018-04-29T11:08:05.879Z,41.56
2018-04-29T11:09:05.933Z,41.82
2018-04-29T11:10:05.897Z,39.43
2018-04-29T11:11:05.878Z,38.83
2018-04-29T11:12:05.878Z,39.01
2018-04-29T11:13:06.174Z,37.12
2018-04-29T11:14:05.887Z,36.28
2018-04-29T11:15:06.070Z,34.94
2018-04-29T11:16:05.882Z,35.13
2018-04-29T11:17:05.961Z,35.78
2018-04-29T11:18:05.964Z,36.73
2018-04-29T11:19:05.876Z,36.65
2018-04-29T11:20:06.260Z,34.56
2018-04-29T11:21:06.012Z,35.02
2018-04-29T11:22:05.971Z,33.96
2018-04-29T11:23:05.962Z,33.20
2018-04-29T11:24:05.875Z,32.75
2018-04-29T11:25:05.886Z,32.06
2018-04-29T11:26:05.980Z,32.05
2018-04-29T11:27:06.196Z,32.35
2018-04-29T11:28:05.885Z,35.22
2018-04-29T11:29:05.893Z,36.36
2018-04-29T11:30:05.884Z,36.16
2018-04-29T11:31:05.960Z,37.61
2018-04-29T11:32:05.884Z,38.95
2018-04-29T11:33:06.018Z,39.61
2018-04-29T11:34:06.221Z,39.32
2018-04-29T11:35:05.894Z,39.29
2018-04-29T11:36:05.892Z,38.93
2018-04-29T11:37:05.977Z,39.32
2018-04-29T11:38:05.885Z,39.61
2018-04-29T11:39:06.043Z,39.70
2018-04-29T11:40:05.887Z,40.96
2018-04-29T11:41:06.285Z,40.96
2018-04-29T11:42:05.973Z,40.11
2018-04-29T11:43:05.965Z,39.28
2018-04-29T11:44:05.974Z,38.62
2018-04-29T11:45:05.971Z,38.25
2018-04-29T11:46:05.970Z,38.62
2018-04-29T11:47:05.971Z,39.04
2018-04-29T11:48:06.180Z,40.50
2018-04-29T11:49:05.879Z,41.47
2018-04-29T11:50:05.882Z,39.61
2018-04-29T11:51:05.931Z,40.48
2018-04-29T11:52:05.958Z,40.36
2018-04-29T11:53:05.968Z,41.24
2018-04-29T11:54:05.967Z,40.63
2018-04-29T11:56:05.877Z,41.94
2018-04-29T11:57:05.958Z,42.93
2018-04-29T11:58:05.946Z,43.28
2018-04-29T11:59:05.955Z,43.76
2018-04-29T12:00:05.862Z,44.03
2018-04-29T12:01:06.157Z,44.34
2018-04-29T12:02:05.859Z,43.68
2018-04-29T12:03:05.949Z,41.70
2018-04-29T12:04:05.851Z,42.16
2018-04-29T12:05:05.852Z,42.79
2018-04-29T12:06:05.860Z,43.85
2018-04-29T12:07:06.186Z,44.84
2018-04-29T12:08:05.833Z,44.12
2018-04-29T12:09:05.887Z,43.63
2018-04-29T12:10:05.831Z,41.82
2018-04-29T12:11:05.831Z,40.59
2018-04-29T12:12:05.980Z,39.37
2018-04-29T12:13:06.145Z,38.39
2018-04-29T12:14:05.937Z,38.93
2018-04-29T12:16:05.968Z,41.79
2018-04-29T12:17:05.817Z,41.50
2018-04-29T12:18:05.912Z,42.37
2018-04-29T12:19:06.399Z,42.32
2018-04-29T12:20:05.998Z,41.97
2018-04-29T12:21:05.947Z,39.84
2018-04-29T12:22:06.001Z,39.36
2018-04-29T12:23:05.882Z,39.45
2018-04-29T12:24:05.909Z,39.08
2018-04-29T12:25:06.081Z,40.34
2018-04-29T12:26:05.790Z,40.71
2018-04-29T12:27:05.783Z,40.50
2018-04-29T12:28:05.926Z,40.81
2018-04-29T12:29:05.857Z,39.49
2018-04-29T12:30:07.162Z,37.28
2018-04-29T12:31:06.309Z,37.73
2018-04-29T12:32:05.772Z,38.21
2018-04-29T12:33:05.901Z,37.98
2018-04-29T12:34:05.797Z,36.77
2018-04-29T12:35:05.763Z,36.55
2018-04-29T12:36:05.755Z,36.13
2018-04-29T12:37:06.059Z,36.61
2018-04-29T12:38:06.132Z,37.39
2018-04-29T12:39:05.838Z,38.93
2018-04-29T12:40:06.663Z,37.80
2018-04-29T12:41:05.749Z,36.91
2018-04-29T12:42:05.748Z,36.99
2018-04-29T12:43:06.765Z,39.04
2018-04-29T12:44:05.748Z,37.66
2018-04-29T12:45:05.843Z,37.65
2018-04-29T12:46:06.067Z,39.01
2018-04-29T12:47:05.895Z,38.23
2018-04-29T12:48:05.872Z,39.06
2018-04-29T12:49:05.877Z,39.26
2018-04-29T12:51:06.060Z,40.42
2018-04-29T12:52:06.253Z,38.01
2018-04-29T12:53:05.829Z,36.30
2018-04-29T12:54:05.831Z,35.21
2018-04-29T12:55:05.742Z,35.52
2018-04-29T12:56:05.835Z,36.40
2018-04-29T12:57:05.828Z,36.00
2018-04-29T12:58:06.120Z,34.37
2018-04-29T12:59:06.017Z,34.84
2018-04-29T13:00:05.825Z,34.47
2018-04-29T13:01:05.762Z,35.33
2018-04-29T13:02:05.798Z,36.67
2018-04-29T13:03:05.770Z,36.77